DW0805 Ramloese DK current weather conditions

sailwx.info

Wind from 318 at 10 knots gusting 19

Air temperature 2.8° C
Dewpoint 1.1° C

Last reported at 2015-Mar-03 07:45 UTC.
Time now 2015-Mar-03 08:55 UTC

Location: N 56°01' E 012°05'.
View on Google Maps.

See reports from other nearby stations

  
Tides and Currents Weather Stations Pressure Air Temp Water Temp Dewpoint Dewpoint Depression Visibility Wind Speed Wind Dir Waves Ship Positions
date/time (UTC)wind fromknots sea level pressurealtimeterstation pressurevisibilityair tempwater tempwave heightnotes
2015-Mar-03 07:45 318 10 gusting 19 2.8
2015-Mar-03 07:35 291 12 gusting 17 2.8
2015-Mar-03 07:25 273 10 gusting 17 2.8
2015-Mar-03 07:15 292 9 gusting 15 2.8
2015-Mar-03 07:05 306 10 gusting 14 2.8
2015-Mar-03 06:55 321 8 gusting 15 2.8
2015-Mar-03 06:45 297 8 gusting 15 2.8
2015-Mar-03 06:35 319 12 gusting 18 2.8
2015-Mar-03 06:25 281 10 gusting 17 2.8
2015-Mar-03 06:15 290 10 gusting 19 2.2
2015-Mar-03 06:05 252 9 gusting 19 2.8
2015-Mar-03 05:55 261 9 gusting 15 2.2
2015-Mar-03 05:45 270 9 gusting 15 2.8
2015-Mar-03 05:35 279 7 gusting 13 2.2
2015-Mar-03 05:25 281 8 gusting 15 2.2
2015-Mar-03 05:15 271 12 gusting 18 2.8
2015-Mar-03 05:05 282 10 gusting 15 2.2
2015-Mar-03 04:55 272 8 gusting 15 2.8
2015-Mar-03 04:45 290 9 gusting 18 2.8
2015-Mar-03 04:35 278 10 gusting 17 2.8
2015-Mar-03 04:25 269 8 gusting 14 2.8
2015-Mar-03 04:15 272 10 gusting 15 2.8
2015-Mar-03 04:05 269 11 gusting 17 2.8
2015-Mar-03 03:55 281 10 gusting 19 2.8
2015-Mar-03 03:45 281 12 gusting 18 2.8
2015-Mar-03 03:35 275 10 gusting 15 2.8
2015-Mar-03 03:25 276 12 gusting 15 2.8
2015-Mar-03 03:15 283 11 gusting 15 2.8
2015-Mar-03 03:05 287 10 gusting 15 2.8
2015-Mar-03 02:55 274 11 gusting 15 2.8
2015-Mar-03 02:45 286 11 gusting 19 2.8
2015-Mar-03 02:35 278 10 gusting 17 2.8
2015-Mar-03 02:25 297 10 gusting 15 2.8
2015-Mar-03 02:15 266 11 gusting 18 2.8
2015-Mar-03 02:05 303 10 gusting 19 2.8
2015-Mar-03 01:55 270 9 gusting 19 2.8
2015-Mar-03 01:45 272 6 gusting 15 2.8
2015-Mar-03 01:35 284 11 gusting 19 2.8
2015-Mar-03 01:25 294 8 gusting 15 2.8
2015-Mar-03 01:15 272 11 gusting 18 2.8
2015-Mar-03 01:05 287 11 gusting 18 2.8
2015-Mar-03 00:55 279 15 gusting 20 3.3
2015-Mar-03 00:35 267 11 gusting 15 3.3
2015-Mar-03 00:25 266 12 gusting 17 3.3
2015-Mar-03 00:15 268 10 gusting 15 3.3
2015-Mar-03 00:05 290 10 gusting 18 3.3
2015-Mar-02 23:55 271 9 gusting 15 3.3
2015-Mar-02 23:45 260 10 gusting 18 3.3
2015-Mar-02 23:35 271 10 gusting 19 3.3
2015-Mar-02 23:25 275 4 gusting 17 3.3
2015-Mar-02 23:15 292 11 gusting 18 3.3
2015-Mar-02 23:05 276 10 gusting 15 3.3
2015-Mar-02 22:55 277 10 gusting 17 3.3
2015-Mar-02 22:45 277 12 gusting 19 3.3
2015-Mar-02 22:35 272 12 gusting 15 3.3
2015-Mar-02 22:25 282 10 gusting 17 3.3
2015-Mar-02 22:15 285 10 gusting 15 3.3
2015-Mar-02 22:05 275 11 gusting 15 3.3
2015-Mar-02 21:55 274 12 gusting 19 3.3
2015-Mar-02 21:45 279 11 gusting 18 3.3
2015-Mar-02 21:35 277 7 gusting 14 3.3
2015-Mar-02 21:25 260 11 gusting 19 3.3
2015-Mar-02 21:15 280 11 gusting 19 2.8
2015-Mar-02 21:05 270 11 gusting 19 2.8
2015-Mar-02 20:55 274 13 gusting 19 3.3
2015-Mar-02 20:45 279 11 gusting 19 3.3
2015-Mar-02 20:35 288 11 gusting 19 3.3
2015-Mar-02 20:25 275 12 gusting 18 3.3
2015-Mar-02 20:15 277 10 gusting 15 3.3
2015-Mar-02 20:05 277 8 gusting 18 3.3
2015-Mar-02 19:55 289 11 gusting 17 3.3
2015-Mar-02 19:45 271 10 gusting 15 3.3
2015-Mar-02 19:35 266 12 gusting 19 3.9
2015-Mar-02 19:25 271 8 gusting 17 3.3
2015-Mar-02 19:15 283 13 gusting 20 3.3
2015-Mar-02 19:05 268 8 gusting 18 3.3
2015-Mar-02 18:55 291 10 gusting 15 3.3
2015-Mar-02 18:45 291 9 gusting 15 3.3
2015-Mar-02 18:35 277 11 gusting 17 3.9
2015-Mar-02 18:25 278 11 gusting 17 3.9
2015-Mar-02 18:15 285 9 gusting 17 3.9
2015-Mar-02 18:05 275 10 gusting 17 3.9
2015-Mar-02 17:55 293 7 gusting 15 3.9
2015-Mar-02 17:45 288 10 gusting 17 3.3
2015-Mar-02 17:35 280 9 gusting 15 3.9
2015-Mar-02 17:25 293 8 gusting 17 3.9
2015-Mar-02 17:15 273 11 gusting 15 3.9
2015-Mar-02 17:05 266 9 gusting 14 3.9
2015-Mar-02 16:55 262 8 gusting 14 3.9
2015-Mar-02 16:45 267 7 gusting 11 3.9
2015-Mar-02 16:35 279 10 gusting 13 3.9
2015-Mar-02 16:25 278 6 gusting 14 4.4
2015-Mar-02 16:15 275 8 gusting 14 4.4
2015-Mar-02 16:05 276 8 gusting 15 4.4
2015-Mar-02 15:55 270 7 gusting 13 4.4
2015-Mar-02 15:45 268 7 gusting 11 5.0
2015-Mar-02 15:35 260 7 gusting 11 5.0
2015-Mar-02 15:25 266 6 gusting 15 5.0
2015-Mar-02 15:15 288 6 gusting 13 5.0
2015-Mar-02 15:05 295 8 gusting 14 5.0
2015-Mar-02 14:55 277 8 gusting 15 5.0
2015-Mar-02 14:45 282 8 gusting 12 5.6
2015-Mar-02 14:35 293 6 gusting 13 5.0
2015-Mar-02 14:25 300 8 gusting 15 5.0
2015-Mar-02 14:15 291 10 gusting 15 5.6
2015-Mar-02 14:05 279 7 gusting 15 5.0
2015-Mar-02 13:55 291 8 gusting 15 5.0
2015-Mar-02 13:45 322 11 gusting 15 5.0
2015-Mar-02 13:35 292 10 gusting 15 4.4
2015-Mar-02 13:25 279 7 gusting 15 4.4
2015-Mar-02 13:15 316 10 gusting 17 3.9
2015-Mar-02 13:05 315 10 gusting 14 3.9
2015-Mar-02 12:55 335 9 gusting 14 3.3
2015-Mar-02 12:45 299 10 gusting 13 3.3
2015-Mar-02 12:35 296 10 gusting 13 3.3
2015-Mar-02 12:25 316 8 gusting 15 3.9
2015-Mar-02 12:15 320 8 gusting 14 3.9
2015-Mar-02 12:05 275 7 gusting 13 3.9
2015-Mar-02 11:55 278 8 gusting 15 3.9
2015-Mar-02 11:45 320 10 gusting 14 3.9
2015-Mar-02 11:35 279 10 gusting 15 3.9
2015-Mar-02 11:25 280 7 gusting 14 3.9
2015-Mar-02 11:15 314 5 gusting 13 3.9
2015-Mar-02 11:05 306 4 gusting 8 3.3
2015-Mar-02 10:55 262 5 gusting 8 3.3
2015-Mar-02 10:45 278 3 gusting 11 3.3
2015-Mar-02 10:35 312 6 gusting 10 3.3
2015-Mar-02 10:25 262 5 gusting 11 2.8
2015-Mar-02 10:15 251 7 gusting 11 2.8
2015-Mar-02 10:05 249 7 gusting 12 2.8
2015-Mar-02 09:55 300 9 gusting 13 2.8
2015-Mar-02 09:45 216 10 gusting 13 2.2
2015-Mar-02 09:35 211 8 gusting 13 2.2
2015-Mar-02 09:25 283 8 gusting 13 2.2
2015-Mar-02 09:15 200 6 gusting 13 2.2
2015-Mar-02 09:05 192 8 gusting 13 2.2
2015-Mar-02 08:55 211 10 gusting 15 2.2
2015-Mar-02 08:45 214 10 gusting 14 2.2
2015-Mar-02 08:35 269 11 gusting 17 2.2
2015-Mar-02 08:25 278 12 gusting 15 2.2
2015-Mar-02 08:15 205 11 gusting 15 1.7
2015-Mar-02 08:05 205 9 gusting 15 1.7
2015-Mar-02 07:55 197 9 gusting 15 1.7
2015-Mar-02 07:45 186 11 gusting 14 1.1
2015-Mar-02 07:35 303 10 gusting 13 1.1
2015-Mar-02 07:25 193 9 gusting 14 1.1
2015-Mar-02 07:15 201 12 gusting 19 2.2
2015-Mar-02 07:05 251 15 gusting 19 2.8
2015-Mar-02 06:55 192 11 gusting 14 3.3
2015-Mar-02 06:45 191 8 gusting 13 3.3
2015-Mar-02 06:35 181 7 gusting 11 3.3
2015-Mar-02 06:25 179 7 gusting 12 2.8
2015-Mar-02 06:15 173 4 gusting 8 2.8
2015-Mar-02 06:05 172 5 gusting 7 2.8
2015-Mar-02 05:55 164 5 gusting 8 2.8
2015-Mar-02 05:45 146 5 gusting 10 2.8
2015-Mar-02 05:35 163 6 gusting 10 2.8
2015-Mar-02 05:25 157 6 gusting 13 2.8
2015-Mar-02 05:15 155 6 gusting 10 2.8
2015-Mar-02 05:05 155 6 gusting 8 2.8
2015-Mar-02 04:55 163 4 gusting 8 2.8
2015-Mar-02 04:45 167 2 gusting 6 2.8
2015-Mar-02 04:35 168 4 gusting 7 2.8
2015-Mar-02 04:25 176 5 gusting 6 2.8
2015-Mar-02 04:15 173 4 gusting 8 2.8
2015-Mar-02 04:05 184 6 gusting 8 2.8
2015-Mar-02 03:55 182 5 gusting 8 2.2
2015-Mar-02 03:45 175 4 gusting 7 2.2
2015-Mar-02 03:35 167 4 gusting 8 2.2
2015-Mar-02 03:25 182 5 gusting 10 2.8
2015-Mar-02 03:15 185 7 gusting 13 2.8
2015-Mar-02 03:05 189 9 gusting 12 2.8
2015-Mar-02 02:55 187 6 gusting 10 2.2
2015-Mar-02 02:45 184 4 gusting 7 2.2
2015-Mar-02 02:35 179 4 gusting 7 2.2
2015-Mar-02 02:25 173 4 gusting 6 2.2
2015-Mar-02 02:15 183 2 gusting 7 2.2
2015-Mar-02 02:05 189 7 gusting 11 2.8
2015-Mar-02 01:55 201 5 gusting 8 2.8
2015-Mar-02 01:45 205 6 gusting 13 2.8
2015-Mar-02 01:35 208 7 gusting 13 2.8
2015-Mar-02 01:25 209 9 gusting 13 2.8
2015-Mar-02 01:15 209 7 gusting 13 2.8
2015-Mar-02 01:05 209 9 gusting 13 2.8
2015-Mar-02 00:55 206 7 gusting 12 3.3
2015-Mar-02 00:45 216 8 gusting 13 3.3
2015-Mar-02 00:35 219 10 gusting 13 3.3
2015-Mar-02 00:25 215 9 gusting 12 3.3
2015-Mar-02 00:15 224 8 gusting 13 3.3
2015-Mar-02 00:05 227 7 gusting 13 3.9
2015-Mar-01 23:55 237 7 gusting 13 3.9
2015-Mar-01 23:45 237 8 gusting 12 4.4
2015-Mar-01 23:35 236 6 gusting 13 4.4
2015-Mar-01 23:25 238 8 gusting 12 4.4
2015-Mar-01 23:15 233 10 gusting 15 3.9
2015-Mar-01 23:05 221 10 gusting 15 3.9
2015-Mar-01 22:55 214 10 gusting 14 3.9
2015-Mar-01 22:45 226 8 gusting 12 3.9
2015-Mar-01 22:35 224 8 gusting 13 3.9
2015-Mar-01 22:25 241 7 gusting 11 3.9
2015-Mar-01 22:15 237 8 gusting 12 3.9
2015-Mar-01 22:05 231 8 gusting 12 3.9
2015-Mar-01 21:55 230 9 gusting 15 3.9
2015-Mar-01 21:45 226 8 gusting 14 4.4
2015-Mar-01 21:35 231 11 gusting 15 4.4
2015-Mar-01 21:25 229 11 gusting 14 4.4
2015-Mar-01 21:15 237 12 gusting 15 4.4
2015-Mar-01 21:05 238 10 gusting 13 4.4
2015-Mar-01 20:55 233 8 gusting 13 4.4
2015-Mar-01 20:45 234 8 gusting 14 4.4
2015-Mar-01 20:35 238 10 gusting 17 4.4
2015-Mar-01 20:25 243 11 gusting 15 4.4
2015-Mar-01 20:15 235 12 gusting 17 4.4
2015-Mar-01 20:05 242 8 gusting 13 4.4
2015-Mar-01 19:55 239 9 gusting 15 4.4
2015-Mar-01 19:45 243 9 gusting 15 4.4
2015-Mar-01 19:35 254 10 gusting 14 4.4
2015-Mar-01 19:25 241 8 gusting 14 4.4
2015-Mar-01 19:15 245 13 gusting 18 4.4
2015-Mar-01 19:05 241 10 gusting 14 4.4
2015-Mar-01 18:55 235 8 gusting 15 4.4
2015-Mar-01 18:45 239 10 gusting 15 4.4
2015-Mar-01 18:35 230 8 gusting 14 5.0
2015-Mar-01 18:25 228 9 gusting 14 4.4
2015-Mar-01 18:15 234 9 gusting 14 5.0
2015-Mar-01 18:05 231 11 gusting 15 5.0
2015-Mar-01 17:55 235 12 gusting 17 5.0
2015-Mar-01 17:45 231 10 gusting 17 5.0
2015-Mar-01 17:35 230 11 gusting 15 5.0
2015-Mar-01 17:25 242 11 gusting 17 5.0
2015-Mar-01 17:15 235 11 gusting 15 5.0
2015-Mar-01 17:05 239 12 gusting 15 5.0
2015-Mar-01 16:55 233 11 gusting 15 5.0
2015-Mar-01 16:45 225 10 gusting 15 5.0
2015-Mar-01 16:35 242 9 gusting 15 5.0
2015-Mar-01 16:25 237 10 gusting 15 5.6
2015-Mar-01 16:15 242 11 gusting 15 5.6
2015-Mar-01 16:05 248 11 gusting 14 5.6
2015-Mar-01 15:55 231 12 gusting 15 5.0
2015-Mar-01 15:45 236 10 gusting 17 5.6
2015-Mar-01 15:35 236 11 gusting 14 5.6
2015-Mar-01 15:25 280 12 gusting 15 5.6
2015-Mar-01 15:15 245 11 gusting 15 5.6
2015-Mar-01 15:05 227 11 gusting 14 5.6
2015-Mar-01 14:55 275 12 gusting 14 5.0
2015-Mar-01 14:45 217 11 gusting 17 5.0
2015-Mar-01 14:35 285 10 gusting 14 5.0
2015-Mar-01 14:25 335 12 gusting 15 5.0
2015-Mar-01 14:15 223 12 gusting 15 4.4
2015-Mar-01 14:05 232 13 gusting 15 4.4
2015-Mar-01 13:55 281 11 gusting 15 4.4
2015-Mar-01 13:45 228 13 gusting 18 3.9
2015-Mar-01 13:35 217 13 gusting 18 3.9
2015-Mar-01 13:25 226 13 gusting 19 3.9
2015-Mar-01 13:15 207 12 gusting 19 3.9
2015-Mar-01 13:05 219 14 gusting 19 3.9
2015-Mar-01 12:55 225 13 gusting 20 3.3
2015-Mar-01 12:45 289 15 gusting 19 3.3
2015-Mar-01 12:35 278 14 gusting 19 2.8
2015-Mar-01 12:25 275 13 gusting 21 2.8
2015-Mar-01 12:15 232 10 gusting 18 2.8
2015-Mar-01 12:05 217 13 gusting 19 2.8
2015-Mar-01 11:55 287 12 gusting 21 2.2
2015-Mar-01 11:45 267 10 gusting 18 2.2
2015-Mar-01 11:35 228 13 gusting 19 2.2
2015-Mar-01 11:25 335 13 gusting 20 2.2
2015-Mar-01 11:15 256 12 gusting 19 2.2
2015-Mar-01 11:05 221 12 gusting 19 2.2
2015-Mar-01 10:55 211 12 gusting 20 2.2
2015-Mar-01 10:45 204 13 gusting 22 2.2
2015-Mar-01 10:35 259 15 gusting 19 2.2
2015-Mar-01 10:25 185 15 gusting 21 2.2
2015-Mar-01 10:15 180 15 gusting 21 1.7
2015-Mar-01 10:05 263 14 gusting 20 1.7
2015-Mar-01 09:55 207 14 gusting 20 1.7
2015-Mar-01 09:45 182 17 gusting 25 1.7
2015-Mar-01 09:35 189 17 gusting 22 1.7
2015-Mar-01 09:25 188 18 gusting 25 1.7
2015-Mar-01 09:15 183 13 gusting 24 1.7
2015-Mar-01 09:05 184 15 gusting 22 1.7
2015-Mar-01 08:55 312 17 gusting 24 1.7
2015-Mar-01 08:45 182 18 gusting 25 1.7
2015-Mar-01 08:35 173 13 gusting 19 1.7
2015-Mar-01 08:25 191 12 gusting 19 1.7
2015-Mar-01 08:15 175 11 gusting 20 1.7
2015-Mar-01 08:05 171 11 gusting 20 1.7